createdAt,value
2018-02-20T00:18:15.060Z,76.50
2018-02-20T00:33:43.155Z,75.90
2018-02-20T00:45:14.629Z,75.60
2018-02-20T00:47:42.417Z,75.40
2018-02-20T00:50:10.273Z,75.50
2018-02-20T00:52:38.044Z,75.60
2018-02-20T00:55:05.845Z,75.40
2018-02-20T00:57:35.141Z,75.40
2018-02-20T01:00:02.980Z,75.40
2018-02-20T01:02:30.775Z,75.30
2018-02-20T01:04:59.326Z,75.10
2018-02-20T01:07:28.445Z,75.00
2018-02-20T01:09:57.895Z,75.10
2018-02-20T01:12:25.681Z,75.10
2018-02-20T01:14:53.477Z,74.90
2018-02-20T01:17:22.061Z,75.30
2018-02-20T02:02:22.454Z,74.10
2018-02-20T02:04:50.253Z,74.20
2018-02-20T02:07:18.073Z,74.10
2018-02-20T02:09:46.685Z,74.20
2018-02-20T02:12:15.246Z,74.20
2018-02-20T02:14:43.608Z,74.20
2018-02-20T02:17:11.382Z,74.30
2018-02-20T02:19:39.196Z,75.10
2018-02-20T02:22:07.059Z,74.30
2018-02-20T02:24:34.858Z,74.40
2018-02-20T02:27:02.670Z,74.40
2018-02-20T02:29:31.227Z,74.50
2018-02-20T02:31:59.048Z,74.50
2018-02-20T02:34:26.838Z,74.30
2018-02-20T02:36:54.646Z,74.10
2018-02-20T02:39:24.159Z,73.60
2018-02-20T02:41:52.707Z,73.40
2018-02-20T02:44:20.582Z,73.40
2018-02-20T02:46:48.420Z,73.40
2018-02-20T02:49:17.234Z,74.30
2018-02-20T02:51:45.490Z,73.40
2018-02-20T02:54:14.165Z,73.10
2018-02-20T02:56:42.218Z,73.00
2018-02-20T02:59:10.700Z,72.70
2018-02-20T03:01:38.504Z,72.70
2018-02-20T03:04:08.259Z,72.60
2018-02-20T03:06:36.078Z,72.70
2018-02-20T03:09:03.965Z,72.80
2018-02-20T03:11:32.527Z,72.60
2018-02-20T03:14:01.822Z,72.50
2018-02-20T03:16:29.642Z,72.50
2018-02-20T03:18:57.428Z,72.60
2018-02-20T03:21:25.221Z,72.90
2018-02-20T03:23:53.029Z,73.20
2018-02-20T03:26:20.813Z,73.50
2018-02-20T03:28:48.597Z,73.70
2018-02-20T03:31:16.386Z,73.70
2018-02-20T03:33:44.167Z,73.70
2018-02-20T03:36:12.718Z,73.40
2018-02-20T03:38:40.506Z,73.50
2018-02-20T03:41:09.086Z,73.90
2018-02-20T03:43:36.873Z,73.60
2018-02-20T03:46:05.435Z,73.30
2018-02-20T03:48:33.267Z,73.20
2018-02-20T03:51:01.049Z,73.30
2018-02-20T03:53:28.850Z,73.00
2018-02-20T03:55:56.631Z,72.90
2018-02-20T03:58:24.430Z,72.80
2018-02-20T04:00:52.292Z,72.60
2018-02-20T04:03:20.854Z,72.30
2018-02-20T04:05:48.661Z,72.30
2018-02-20T04:08:16.471Z,72.30
2018-02-20T04:10:44.249Z,72.20
2018-02-20T04:13:12.089Z,71.90
2018-02-20T04:15:39.886Z,71.90
2018-02-20T04:18:07.669Z,72.00
2018-02-20T04:20:35.474Z,71.60
2018-02-20T04:23:04.013Z,71.80
2018-02-20T04:25:31.813Z,71.80
2018-02-20T04:28:00.365Z,71.80
2018-02-20T04:30:28.154Z,71.70
2018-02-20T04:32:56.702Z,71.80
2018-02-20T04:35:25.249Z,71.80
2018-02-20T04:37:53.037Z,71.80
2018-02-20T04:40:20.819Z,71.80
2018-02-20T04:42:48.612Z,71.60
2018-02-20T04:45:17.164Z,71.40
2018-02-20T04:47:44.963Z,71.30
2018-02-20T04:50:13.506Z,71.50
2018-02-20T04:52:41.305Z,71.50
2018-02-20T04:55:09.889Z,71.50
2018-02-20T04:57:38.483Z,71.50
2018-02-20T05:00:07.069Z,71.40
2018-02-20T05:02:35.614Z,71.10
2018-02-20T05:05:03.453Z,71.10
2018-02-20T05:07:31.233Z,71.00
2018-02-20T05:09:59.020Z,71.20
2018-02-20T05:12:26.801Z,71.00
2018-02-20T05:14:55.356Z,71.00
2018-02-20T05:17:23.212Z,71.00
2018-02-20T05:19:51.753Z,70.80
2018-02-20T05:22:19.549Z,70.80
2018-02-20T05:24:47.337Z,70.70
2018-02-20T05:27:15.126Z,70.50
2018-02-20T05:29:43.678Z,70.20
2018-02-20T05:32:11.478Z,70.20
2018-02-20T05:34:40.023Z,69.80
2018-02-20T05:37:07.807Z,69.80
2018-02-20T05:39:35.610Z,69.90
2018-02-20T05:42:03.397Z,70.00
2018-02-20T05:44:32.918Z,69.90
2018-02-20T05:47:00.690Z,69.90
2018-02-20T05:49:28.485Z,69.90
2018-02-20T05:51:57.037Z,69.80
2018-02-20T05:54:24.843Z,69.80
2018-02-20T05:56:53.384Z,69.70
2018-02-20T05:59:21.187Z,69.70
2018-02-20T06:01:48.999Z,69.70
2018-02-20T06:04:16.773Z,69.70
2018-02-20T06:06:44.578Z,69.50
2018-02-20T06:09:13.135Z,69.40
2018-02-20T06:11:41.790Z,69.40
2018-02-20T06:14:09.604Z,69.20
2018-02-20T06:16:38.419Z,69.10
2018-02-20T06:19:06.518Z,69.10
2018-02-20T06:21:34.539Z,69.10
2018-02-20T06:24:03.104Z,69.30
2018-02-20T06:26:33.182Z,69.30
2018-02-20T06:29:01.300Z,69.00
2018-02-20T06:31:30.918Z,69.00
2018-02-20T06:34:00.330Z,69.20
2018-02-20T06:36:28.171Z,69.30
2018-02-20T06:38:56.070Z,69.10
2018-02-20T06:41:24.055Z,69.30
2018-02-20T06:43:51.842Z,69.40
2018-02-20T06:46:20.598Z,69.40
2018-02-20T06:48:48.558Z,69.30
2018-02-20T06:51:17.321Z,69.20
2018-02-20T06:53:48.052Z,69.40
2018-02-20T06:56:17.392Z,69.50
2018-02-20T06:58:45.962Z,69.50
2018-02-20T07:01:13.841Z,69.40
2018-02-20T07:03:41.983Z,69.30
2018-02-20T07:06:10.556Z,69.30
2018-02-20T07:08:39.453Z,69.10
2018-02-20T07:11:07.343Z,69.00
2018-02-20T07:13:35.139Z,68.90
2018-02-20T07:16:02.941Z,68.90
2018-02-20T07:21:06.159Z,69.90
2018-02-20T07:23:36.530Z,69.20
2018-02-20T07:26:04.374Z,69.20
2018-02-20T07:28:32.249Z,69.10
2018-02-20T07:31:00.027Z,69.30
2018-02-20T07:33:29.029Z,69.60
2018-02-20T07:35:56.823Z,70.00
2018-02-20T07:38:24.645Z,70.20
2018-02-20T07:40:52.427Z,70.20
2018-02-20T07:43:20.214Z,70.50
2018-02-20T07:45:48.824Z,71.10
2018-02-20T07:48:16.993Z,71.10
2018-02-20T07:50:45.282Z,71.10
2018-02-20T07:53:13.103Z,70.90
2018-02-20T07:55:41.635Z,70.50
2018-02-20T07:58:09.445Z,69.80
2018-02-20T08:00:38.059Z,69.70
2018-02-20T08:03:09.114Z,70.00
2018-02-20T08:05:39.140Z,70.00
2018-02-20T08:08:08.454Z,70.80
2018-02-20T08:10:38.091Z,71.20
2018-02-20T08:13:05.945Z,70.50
2018-02-20T08:15:34.543Z,70.80
2018-02-20T08:18:03.253Z,71.20
2018-02-20T08:20:31.802Z,70.50
2018-02-20T08:22:59.681Z,70.50
2018-02-20T08:25:27.471Z,70.00
2018-02-20T08:27:56.026Z,69.80
2018-02-20T08:30:24.786Z,69.70
2018-02-20T08:32:56.595Z,69.40
2018-02-20T08:35:25.154Z,69.60
2018-02-20T08:37:53.656Z,69.60
2018-02-20T08:40:22.211Z,68.80
2018-02-20T08:42:50.590Z,68.80
2018-02-20T08:45:18.382Z,67.20
2018-02-20T08:47:46.953Z,66.90
2018-02-20T08:50:15.390Z,66.90
2018-02-20T08:52:43.262Z,67.50
2018-02-20T08:55:11.046Z,68.30
2018-02-20T08:57:38.839Z,67.80
2018-02-20T09:00:08.918Z,67.00
2018-02-20T09:02:36.730Z,67.00
2018-02-20T09:05:06.184Z,68.20
2018-02-20T09:11:05.405Z,68.00
2018-02-20T09:16:45.859Z,66.50
2018-02-20T10:34:40.371Z,59.40
2018-02-20T10:37:09.631Z,59.40
2018-02-20T10:39:37.431Z,60.30
2018-02-20T10:42:05.276Z,60.00
2018-02-20T10:44:33.071Z,61.60
2018-02-20T10:47:00.888Z,61.40
2018-02-20T10:49:29.016Z,61.10
2018-02-20T10:51:56.986Z,61.80
2018-02-20T10:54:24.796Z,62.20
2018-02-20T10:56:52.621Z,62.30
2018-02-20T10:59:21.222Z,62.30
2018-02-20T11:01:49.768Z,63.90
2018-02-20T11:04:17.589Z,63.90
2018-02-20T11:06:45.438Z,63.40
2018-02-20T11:09:14.018Z,64.00
2018-02-20T11:11:44.403Z,64.90
2018-02-20T11:14:12.222Z,64.80
2018-02-20T11:16:40.166Z,64.70
2018-02-20T11:19:08.009Z,65.20
2018-02-20T11:21:37.570Z,65.60
2018-02-20T11:24:05.361Z,66.80
2018-02-20T11:26:34.271Z,66.00
2018-02-20T11:29:02.070Z,65.70
2018-02-20T11:31:31.335Z,65.20
2018-02-20T11:33:59.119Z,65.10
2018-02-20T11:36:26.921Z,64.90
2018-02-20T11:38:54.716Z,64.60
2018-02-20T11:41:23.486Z,65.70
2018-02-20T11:43:51.293Z,65.60
2018-02-20T11:46:19.241Z,64.10
2018-02-20T11:48:47.038Z,63.40
2018-02-20T11:51:14.842Z,62.50
2018-02-20T11:53:43.882Z,62.50
2018-02-20T11:56:11.658Z,62.70
2018-02-20T11:58:39.471Z,62.30
2018-02-20T12:01:07.301Z,61.30
2018-02-20T12:03:38.108Z,60.80
2018-02-20T12:06:06.132Z,60.80
2018-02-20T12:08:33.978Z,59.40
2018-02-20T12:11:02.646Z,57.20
2018-02-20T12:13:30.434Z,57.20
2018-02-20T12:15:58.295Z,56.50
2018-02-20T12:18:27.026Z,55.90
2018-02-20T12:20:54.843Z,55.90
2018-02-20T12:23:23.394Z,56.80
2018-02-20T12:25:51.190Z,56.70
2018-02-20T12:28:19.748Z,57.90
2018-02-20T12:30:47.543Z,57.70
2018-02-20T12:33:16.993Z,59.00
2018-02-20T12:35:44.798Z,59.00
2018-02-20T12:38:13.451Z,60.00
2018-02-20T12:40:41.250Z,59.70
2018-02-20T12:43:09.833Z,58.60
2018-02-20T12:45:39.876Z,58.90
2018-02-20T12:48:07.685Z,59.00
2018-02-20T12:50:35.510Z,59.30
2018-02-20T12:53:03.574Z,59.70
2018-02-20T12:55:31.354Z,60.70
2018-02-20T12:57:59.184Z,61.30
2018-02-20T13:00:27.753Z,60.30
2018-02-20T13:02:56.313Z,60.00
2018-02-20T13:05:24.117Z,60.00
2018-02-20T13:07:53.510Z,59.70
2018-02-20T13:10:21.311Z,59.60
2018-02-20T13:12:49.117Z,59.10
2018-02-20T13:15:16.939Z,59.00
2018-02-20T13:17:44.748Z,58.90
2018-02-20T13:20:12.543Z,58.90
2018-02-20T13:22:40.362Z,58.60
2018-02-20T13:25:08.150Z,58.70
2018-02-20T13:27:36.042Z,58.50
2018-02-20T13:30:03.931Z,58.90
2018-02-20T13:32:31.796Z,59.60
2018-02-20T13:34:59.598Z,59.50
2018-02-20T13:37:27.398Z,59.60
2018-02-20T13:39:56.781Z,59.60
2018-02-20T13:42:24.591Z,59.60
2018-02-20T13:44:52.412Z,59.20
2018-02-20T13:47:20.217Z,59.10
2018-02-20T13:49:48.747Z,59.50
2018-02-20T13:52:16.681Z,59.30
2018-02-20T13:54:44.477Z,59.50
2018-02-20T13:57:12.306Z,59.60
2018-02-20T13:59:40.856Z,59.90
2018-02-20T14:02:09.415Z,59.80
2018-02-20T14:04:37.225Z,59.80
2018-02-20T14:07:05.029Z,59.80
2018-02-20T14:09:32.860Z,59.70
2018-02-20T14:12:00.658Z,59.80
2018-02-20T14:14:29.376Z,60.50
2018-02-20T14:16:57.220Z,60.50
2018-02-20T14:19:25.062Z,60.50
2018-02-20T14:21:52.847Z,60.70
2018-02-20T14:24:23.845Z,60.40
2018-02-20T14:26:52.490Z,60.20
2018-02-20T14:29:20.539Z,60.20
2018-02-20T14:31:48.408Z,60.70
2018-02-20T14:34:16.198Z,60.80
2018-02-20T14:36:44.995Z,59.90
2018-02-20T14:39:13.547Z,60.00
2018-02-20T14:41:42.346Z,59.90
2018-02-20T14:44:10.154Z,59.20
2018-02-20T14:46:38.016Z,59.00
2018-02-20T14:49:06.194Z,59.30
2018-02-20T14:51:34.026Z,59.10
2018-02-20T14:54:01.861Z,58.50
2018-02-20T14:56:29.653Z,58.60
2018-02-20T14:58:57.442Z,58.60
2018-02-20T15:01:25.226Z,57.80
2018-02-20T15:03:53.025Z,57.80
2018-02-20T15:06:20.859Z,58.10
2018-02-20T15:08:48.944Z,58.50
2018-02-20T15:11:16.752Z,58.20
2018-02-20T15:13:45.414Z,58.30
2018-02-20T15:16:13.209Z,58.30
2018-02-20T15:18:41.766Z,59.20
2018-02-20T15:21:09.574Z,59.30
2018-02-20T15:23:37.380Z,58.60
2018-02-20T15:26:05.216Z,58.80
2018-02-20T15:28:33.099Z,58.90
2018-02-20T15:31:00.978Z,58.80
2018-02-20T15:33:28.854Z,59.20
2018-02-20T15:35:56.656Z,58.80
2018-02-20T15:38:25.235Z,60.90
2018-02-20T15:40:53.774Z,62.50
2018-02-20T15:43:21.616Z,61.80
2018-02-20T15:45:49.440Z,62.20
2018-02-20T15:48:18.065Z,63.80
2018-02-20T15:50:46.413Z,63.70
2018-02-20T15:53:14.991Z,65.20
2018-02-20T15:55:43.545Z,66.00
2018-02-20T15:58:11.395Z,66.00
2018-02-20T16:00:39.245Z,66.20
2018-02-20T16:03:07.069Z,66.70
2018-02-20T16:05:35.626Z,68.00
2018-02-20T16:08:03.415Z,68.00
2018-02-20T16:10:31.998Z,68.60
2018-02-20T16:13:00.617Z,68.70
2018-02-20T16:15:28.490Z,68.70
2018-02-20T16:17:56.310Z,69.00
2018-02-20T16:20:24.923Z,69.50
2018-02-20T16:22:52.709Z,69.60
2018-02-20T16:25:20.494Z,69.90
2018-02-20T16:27:48.286Z,69.90
2018-02-20T16:30:16.118Z,70.00
2018-02-20T16:32:43.931Z,70.20
2018-02-20T16:35:12.502Z,70.60
2018-02-20T16:37:41.054Z,70.60
2018-02-20T16:40:08.890Z,70.60
2018-02-20T16:42:36.661Z,70.80
2018-02-20T16:45:04.480Z,70.80
2018-02-20T16:47:33.030Z,70.80
2018-02-20T16:50:00.834Z,70.80
2018-02-20T16:52:28.698Z,71.00
2018-02-20T16:54:57.249Z,70.80
2018-02-20T16:57:25.063Z,70.70
2018-02-20T16:59:52.854Z,71.20
2018-02-20T17:02:20.627Z,70.90
2018-02-20T17:04:49.029Z,71.10
2018-02-20T17:07:17.405Z,71.20
2018-02-20T17:09:45.978Z,71.70
2018-02-20T17:12:13.785Z,71.60
2018-02-20T17:14:42.379Z,71.30
2018-02-20T17:17:10.802Z,71.20
2018-02-20T17:19:38.679Z,71.40
2018-02-20T17:22:06.486Z,71.70
2018-02-20T17:24:34.276Z,71.80
2018-02-20T17:27:02.082Z,71.90
2018-02-20T17:29:30.626Z,72.10
2018-02-20T17:31:58.486Z,72.10
2018-02-20T17:34:27.090Z,72.10
2018-02-20T17:36:54.934Z,72.10
2018-02-20T17:39:22.753Z,71.70
2018-02-20T17:41:51.412Z,72.10
2018-02-20T17:44:19.305Z,72.00
2018-02-20T17:46:47.879Z,71.80
2018-02-20T17:49:15.663Z,71.80
2018-02-20T17:51:43.481Z,71.80
2018-02-20T17:54:11.277Z,71.90
2018-02-20T17:56:39.083Z,72.00
2018-02-20T17:59:06.874Z,72.60
2018-02-20T18:01:34.728Z,71.70
2018-02-20T18:04:02.616Z,71.70
2018-02-20T18:06:30.440Z,71.70
2018-02-20T18:08:58.254Z,71.40
2018-02-20T18:11:26.078Z,71.50
2018-02-20T18:13:54.007Z,71.40
2018-02-20T18:16:22.566Z,71.40
2018-02-20T18:18:50.374Z,71.40
2018-02-20T18:21:18.333Z,71.60
2018-02-20T18:23:46.133Z,71.70
2018-02-20T18:26:13.934Z,71.60
2018-02-20T18:28:41.817Z,71.50
2018-02-20T18:31:10.489Z,72.10
2018-02-20T18:33:38.314Z,72.00
2018-02-20T18:36:06.113Z,72.10
2018-02-20T18:38:33.910Z,72.10
2018-02-20T18:41:03.458Z,72.00
2018-02-20T18:43:33.460Z,71.90
2018-02-20T18:46:01.258Z,72.00
2018-02-20T18:48:29.043Z,71.90
2018-02-20T18:50:56.842Z,72.00
2018-02-20T18:53:24.625Z,72.20
2018-02-20T18:55:52.545Z,72.40
2018-02-20T18:58:21.208Z,72.10
2018-02-20T19:00:49.334Z,72.10
2018-02-20T19:03:17.122Z,72.30
2018-02-20T19:05:44.929Z,72.30
2018-02-20T19:08:13.519Z,72.60
2018-02-20T19:10:42.088Z,72.60
2018-02-20T19:13:09.888Z,72.60
2018-02-20T19:15:37.697Z,72.50
2018-02-20T19:18:05.551Z,72.60
2018-02-20T19:20:34.485Z,72.80
2018-02-20T19:23:02.338Z,72.80
2018-02-20T19:25:30.126Z,72.50
2018-02-20T19:27:58.723Z,72.70
2018-02-20T19:30:26.544Z,72.70
2018-02-20T19:32:54.388Z,72.70
2018-02-20T19:35:22.275Z,72.80
2018-02-20T19:37:50.069Z,72.80
2018-02-20T19:40:18.646Z,73.10
2018-02-20T19:42:46.489Z,73.10
2018-02-20T19:45:14.320Z,73.40
2018-02-20T19:47:42.200Z,73.60
2018-02-20T19:50:10.017Z,74.10
2018-02-20T19:52:38.624Z,74.30
2018-02-20T19:55:06.599Z,74.30
2018-02-20T19:57:34.498Z,74.30
2018-02-20T20:00:02.345Z,74.30
2018-02-20T20:02:30.171Z,74.00
2018-02-20T20:04:58.045Z,73.90
2018-02-20T20:07:25.873Z,73.80
2018-02-20T20:09:53.723Z,73.80
2018-02-20T20:12:21.562Z,73.60
2018-02-20T20:14:49.375Z,73.50
2018-02-20T20:17:17.179Z,73.40
2018-02-20T20:19:44.978Z,73.40
2018-02-20T20:22:13.594Z,73.20
2018-02-20T20:24:42.162Z,73.40
2018-02-20T20:27:10.632Z,73.40
2018-02-20T20:29:38.462Z,73.50
2018-02-20T20:32:06.265Z,73.70
2018-02-20T20:34:34.062Z,73.80
2018-02-20T20:56:47.938Z,73.60
2018-02-20T21:19:52.216Z,74.50
2018-02-20T21:22:20.341Z,74.30
2018-02-20T21:24:48.499Z,74.20
2018-02-20T21:27:16.310Z,74.40
2018-02-20T21:29:44.694Z,74.10
2018-02-20T21:32:12.587Z,73.90
2018-02-20T21:34:42.110Z,73.60
2018-02-20T21:37:09.942Z,73.60
2018-02-20T21:39:38.068Z,73.40
2018-02-20T21:42:06.758Z,73.50
2018-02-20T21:44:35.533Z,73.40
2018-02-20T21:47:03.464Z,73.40
2018-02-20T21:49:31.273Z,74.10
2018-02-20T21:52:00.043Z,73.40
2018-02-20T21:54:27.950Z,73.40
2018-02-20T21:56:56.581Z,73.30
2018-02-20T21:59:24.446Z,73.30
2018-02-20T22:01:52.999Z,73.30
2018-02-20T22:04:20.792Z,73.30
2018-02-20T22:06:48.618Z,73.10
2018-02-20T22:09:16.441Z,73.20
2018-02-20T22:11:44.278Z,73.30
2018-02-20T22:14:12.119Z,73.40
2018-02-20T22:16:39.969Z,73.50
2018-02-20T22:19:08.567Z,73.80
2018-02-20T22:21:36.387Z,73.80
2018-02-20T22:24:04.185Z,73.70
2018-02-20T22:26:32.754Z,73.80
2018-02-20T22:29:01.889Z,74.00
2018-02-20T22:31:30.468Z,74.40
2018-02-20T22:33:58.261Z,73.70
2018-02-20T22:36:26.053Z,73.80
2018-02-20T22:38:54.679Z,73.70
2018-02-20T22:41:23.172Z,73.70
2018-02-20T22:43:53.090Z,73.60
2018-02-20T22:46:20.959Z,73.60
2018-02-20T22:48:49.062Z,73.60
2018-02-20T22:51:18.582Z,73.90
2018-02-20T22:53:47.158Z,74.10
2018-02-20T22:56:16.708Z,74.10
2018-02-20T22:58:44.524Z,74.20
2018-02-20T23:01:12.349Z,74.30
2018-02-20T23:03:41.962Z,74.40
2018-02-20T23:06:09.782Z,74.70
2018-02-20T23:08:38.338Z,74.70
2018-02-20T23:11:06.149Z,74.70
2018-02-20T23:13:33.982Z,75.00
2018-02-20T23:16:02.554Z,74.90
2018-02-20T23:18:30.366Z,74.90
